Time;durP1;ratioP1;P1;durP2;ratioP2;P2;SDS_P1;SDS_P2;PMS_P1;PMS_P2;Temp;Humidity;BMP_temperature;BMP_pressure;BME280_temperature;BME280_humidity;BME280_pressure;Samples;Min_cycle;Max_cycle;Signal;HPM_P1;HPM_P2
2024/02/25 00:00:12;;;;;;;5.53;1.20;;;6.20;99.90;;;;;;4992856;28;20180;-78
2024/02/25 00:02:41;;;;;;;5.68;1.75;;;6.20;99.90;;;;;;5004989;28;20372;-78
2024/02/25 00:05:07;;;;;;;5.38;1.40;;;6.20;99.90;;;;;;4974107;28;20169;-78
2024/02/25 00:07:33;;;;;;;2.90;1.40;;;6.20;99.90;;;;;;4997955;28;20030;-78
2024/02/25 00:09:59;;;;;;;3.42;1.30;;;6.20;99.90;;;;;;5007880;28;20053;-79
2024/02/25 00:12:24;;;;;;;3.47;1.00;;;6.20;99.90;;;;;;4984529;28;20022;-79
2024/02/25 00:14:50;;;;;;;3.90;1.58;;;6.20;99.90;;;;;;5001994;28;20498;-78
2024/02/25 00:17:16;;;;;;;2.28;1.02;;;6.20;99.90;;;;;;5006048;28;20022;-78
2024/02/25 00:19:41;;;;;;;2.85;1.17;;;6.20;99.90;;;;;;5005783;28;20494;-78
2024/02/25 00:22:07;;;;;;;2.53;1.08;;;6.20;99.90;;;;;;4992209;28;20033;-79
2024/02/25 00:24:33;;;;;;;5.22;1.20;;;6.20;99.90;;;;;;4999268;28;20027;-79
2024/02/25 00:26:58;;;;;;;3.85;1.45;;;6.20;99.90;;;;;;4981548;28;20649;-79
2024/02/25 00:29:24;;;;;;;2.63;1.30;;;6.20;99.90;;;;;;4991770;28;20040;-80
2024/02/25 00:31:50;;;;;;;4.03;1.08;;;6.20;99.90;;;;;;4988710;28;20026;-79
2024/02/25 00:34:15;;;;;;;1.90;1.10;;;6.20;99.90;;;;;;4991613;28;20030;-79
2024/02/25 00:36:41;;;;;;;3.90;1.30;;;6.20;99.90;;;;;;4984783;28;20026;-79
2024/02/25 00:39:07;;;;;;;4.13;1.10;;;6.20;99.90;;;;;;5002975;28;20058;-79
2024/02/25 00:41:33;;;;;;;3.85;1.15;;;6.20;99.90;;;;;;4992866;28;20103;-79
2024/02/25 00:43:59;;;;;;;3.85;1.02;;;6.20;99.90;;;;;;5006024;28;20583;-79
2024/02/25 00:46:25;;;;;;;4.72;1.27;;;6.30;99.90;;;;;;4974730;28;20419;-79
2024/02/25 00:48:50;;;;;;;1.60;0.90;;;6.30;99.90;;;;;;5005545;28;20026;-79
2024/02/25 00:51:16;;;;;;;4.45;1.23;;;6.30;99.90;;;;;;4991968;28;20026;-79
2024/02/25 00:53:42;;;;;;;3.80;1.17;;;6.20;99.90;;;;;;5005768;28;20029;-80
2024/02/25 00:56:07;;;;;;;2.90;1.10;;;6.20;99.90;;;;;;5005697;28;20497;-79
2024/02/25 00:58:35;;;;;;;2.28;1.08;;;6.20;99.90;;;;;;4974835;28;20807;-79
2024/02/25 01:01:01;;;;;;;2.80;1.13;;;6.20;99.90;;;;;;5006129;28;20044;-79
2024/02/25 01:03:27;;;;;;;3.17;1.33;;;6.20;99.90;;;;;;4991480;28;20653;-79
2024/02/25 01:05:53;;;;;;;1.52;0.95;;;6.20;99.90;;;;;;4987528;28;20034;-79
2024/02/25 01:08:18;;;;;;;3.65;1.08;;;6.20;99.90;;;;;;5005036;28;20022;-79
2024/02/25 01:10:44;;;;;;;3.38;1.40;;;6.20;99.90;;;;;;4998912;28;20082;-79
2024/02/25 01:13:10;;;;;;;2.28;0.93;;;6.10;99.90;;;;;;5004959;28;20033;-79
2024/02/25 01:15:35;;;;;;;2.83;1.30;;;6.10;99.90;;;;;;4990129;28;20698;-78
2024/02/25 01:18:01;;;;;;;2.95;1.10;;;6.10;99.90;;;;;;4997736;28;20048;-79
2024/02/25 01:20:27;;;;;;;2.67;1.00;;;6.00;99.90;;;;;;5009190;28;20038;-79
2024/02/25 01:22:52;;;;;;;3.67;1.30;;;6.10;99.90;;;;;;5008973;28;20049;-79
2024/02/25 01:25:18;;;;;;;2.65;1.27;;;6.00;99.90;;;;;;4996431;28;20475;-79
2024/02/25 01:27:44;;;;;;;3.53;1.20;;;6.00;99.90;;;;;;5007714;28;20064;-78
2024/02/25 01:30:11;;;;;;;2.72;1.00;;;6.00;99.90;;;;;;4991517;28;20030;-79
2024/02/25 01:32:36;;;;;;;3.47;1.10;;;6.00;99.90;;;;;;5006764;28;20042;-78
2024/02/25 01:35:02;;;;;;;4.32;1.20;;;6.00;99.90;;;;;;4997781;28;20034;-79
2024/02/25 01:37:29;;;;;;;2.70;1.10;;;6.00;99.90;;;;;;4977823;28;20022;-79
2024/02/25 01:39:54;;;;;;;2.58;1.08;;;6.00;99.90;;;;;;5002241;28;20025;-79
2024/02/25 01:42:23;;;;;;;2.80;1.00;;;6.00;99.90;;;;;;5002132;28;20030;-79
2024/02/25 01:44:58;;;;;;;2.78;1.30;;;6.00;99.90;;;;;;4985654;28;20050;-79
2024/02/25 01:47:24;;;;;;;3.53;1.10;;;5.90;99.90;;;;;;5001740;28;20080;-79
2024/02/25 01:49:50;;;;;;;4.20;1.15;;;5.90;99.90;;;;;;5008712;28;20026;-79
2024/02/25 01:52:16;;;;;;;4.55;1.10;;;5.90;99.90;;;;;;5001688;28;20029;-78
2024/02/25 01:54:44;;;;;;;4.05;1.20;;;5.90;99.90;;;;;;5005170;28;20044;-79
2024/02/25 01:57:10;;;;;;;3.50;1.30;;;5.90;99.90;;;;;;5009002;28;20026;-79
2024/02/25 01:59:36;;;;;;;3.20;1.20;;;5.90;99.90;;;;;;5008112;28;20521;-78
2024/02/25 02:02:02;;;;;;;4.68;1.48;;;5.90;99.90;;;;;;5008675;28;20030;-79
2024/02/25 02:04:28;;;;;;;4.57;1.33;;;5.90;99.90;;;;;;5008248;28;20030;-79
2024/02/25 02:06:55;;;;;;;3.10;1.42;;;6.00;99.90;;;;;;4990806;28;20054;-79
2024/02/25 02:09:20;;;;;;;2.92;1.20;;;5.90;99.90;;;;;;5007732;28;20460;-79
2024/02/25 02:11:58;;;;;;;3.40;1.63;;;5.90;99.90;;;;;;4990920;28;20148;-79
2024/02/25 02:14:25;;;;;;;3.90;1.20;;;6.00;99.90;;;;;;5011176;28;20034;-78
2024/02/25 02:16:51;;;;;;;3.95;1.75;;;6.00;99.90;;;;;;4990832;28;20025;-79
2024/02/25 02:19:17;;;;;;;3.17;1.08;;;6.00;99.90;;;;;;4976280;28;20358;-79
2024/02/25 02:21:43;;;;;;;2.70;1.20;;;6.00;99.90;;;;;;4979884;28;20507;-79
2024/02/25 02:24:08;;;;;;;3.83;1.40;;;6.00;99.90;;;;;;5005231;28;20088;-79
2024/02/25 02:26:34;;;;;;;3.30;1.33;;;6.00;99.90;;;;;;4998800;28;20041;-78
2024/02/25 02:29:00;;;;;;;2.28;1.20;;;6.00;99.90;;;;;;5002095;28;20037;-78
2024/02/25 02:31:27;;;;;;;2.35;1.20;;;6.10;99.90;;;;;;5007868;28;20049;-79
2024/02/25 02:33:53;;;;;;;3.20;1.55;;;6.10;99.90;;;;;;4994590;28;20466;-79
2024/02/25 02:36:18;;;;;;;4.68;1.60;;;6.10;99.90;;;;;;5007293;28;20022;-79
2024/02/25 02:38:44;;;;;;;4.60;1.50;;;6.10;99.90;;;;;;4997242;28;20024;-79
2024/02/25 02:41:10;;;;;;;6.00;1.45;;;6.10;99.90;;;;;;5005415;28;20010;-79
2024/02/25 02:43:36;;;;;;;4.18;1.70;;;6.10;99.90;;;;;;5007872;28;20028;-79
2024/02/25 02:46:03;;;;;;;2.78;1.55;;;6.10;99.90;;;;;;5007716;28;20505;-78
2024/02/25 02:48:28;;;;;;;3.47;1.60;;;6.20;99.90;;;;;;5007324;28;20398;-80
2024/02/25 02:50:56;;;;;;;3.92;1.30;;;6.20;99.90;;;;;;5007735;28;20026;-79
2024/02/25 02:53:22;;;;;;;8.10;2.20;;;6.20;99.90;;;;;;4993491;28;20037;-79
2024/02/25 02:55:47;;;;;;;7.22;1.60;;;6.20;99.90;;;;;;5007434;28;20021;-79
2024/02/25 02:58:13;;;;;;;2.78;1.30;;;6.20;99.90;;;;;;5003677;28;20026;-79
2024/02/25 03:00:39;;;;;;;3.28;1.33;;;6.20;99.90;;;;;;4997308;28;20483;-79
2024/02/25 03:03:05;;;;;;;2.63;1.55;;;6.20;99.90;;;;;;4993505;28;20026;-79
2024/02/25 03:05:30;;;;;;;1.90;1.40;;;6.20;99.90;;;;;;4999850;28;20138;-79
2024/02/25 03:07:56;;;;;;;3.13;1.60;;;6.20;99.90;;;;;;5003237;28;20101;-79
2024/02/25 03:10:22;;;;;;;2.20;1.35;;;6.20;99.90;;;;;;4985107;28;20463;-78
2024/02/25 03:12:48;;;;;;;2.97;1.50;;;6.20;99.90;;;;;;4999159;28;20410;-78
2024/02/25 03:15:13;;;;;;;2.90;1.58;;;6.20;99.90;;;;;;4992886;28;20026;-78
2024/02/25 03:17:40;;;;;;;2.65;1.35;;;6.20;99.90;;;;;;4993188;28;20029;-78
2024/02/25 03:20:08;;;;;;;4.78;1.50;;;6.30;99.90;;;;;;4995290;28;20025;-78
2024/02/25 03:22:34;;;;;;;4.38;1.50;;;6.30;99.90;;;;;;4983364;28;20122;-79
2024/02/25 03:25:00;;;;;;;3.53;1.15;;;6.30;99.90;;;;;;4997310;28;20026;-79
2024/02/25 03:27:25;;;;;;;3.88;1.50;;;6.30;99.90;;;;;;4993259;28;20518;-79
2024/02/25 03:29:51;;;;;;;6.47;1.20;;;6.30;99.90;;;;;;4998708;28;20030;-78
2024/02/25 03:32:17;;;;;;;2.08;0.90;;;6.30;99.90;;;;;;5001272;28;20700;-78
2024/02/25 03:34:42;;;;;;;2.53;1.30;;;6.30;99.90;;;;;;5006963;28;20037;-79
2024/02/25 03:37:08;;;;;;;3.50;1.48;;;6.30;99.90;;;;;;5009241;28;20018;-78
2024/02/25 03:39:34;;;;;;;1.75;1.17;;;6.30;99.90;;;;;;5004308;28;20037;-78
2024/02/25 03:41:59;;;;;;;1.92;1.05;;;6.40;99.90;;;;;;4997339;28;20105;-78
2024/02/25 03:44:27;;;;;;;4.57;1.30;;;6.30;99.90;;;;;;5005926;28;20402;-77
2024/02/25 03:46:52;;;;;;;3.28;1.20;;;6.30;99.90;;;;;;4998932;28;20046;-79
2024/02/25 03:49:20;;;;;;;1.55;1.10;;;6.40;99.90;;;;;;5000669;28;20079;-78
2024/02/25 03:51:46;;;;;;;4.03;1.10;;;6.30;99.90;;;;;;5007161;28;20875;-78
2024/02/25 03:54:13;;;;;;;2.03;1.30;;;6.40;99.90;;;;;;4993910;28;20049;-78
2024/02/25 03:56:39;;;;;;;1.80;1.17;;;6.40;99.90;;;;;;5004968;28;20031;-80
2024/02/25 03:59:05;;;;;;;2.40;1.20;;;6.40;99.90;;;;;;5006491;28;20026;-78
2024/02/25 04:01:30;;;;;;;1.85;0.98;;;6.40;99.90;;;;;;4992589;28;20050;-78
2024/02/25 04:03:56;;;;;;;1.80;1.20;;;6.40;99.90;;;;;;5006346;28;20034;-78
2024/02/25 04:06:22;;;;;;;3.67;1.20;;;6.40;99.90;;;;;;5007490;28;20095;-79
2024/02/25 04:08:48;;;;;;;3.78;1.25;;;6.40;99.90;;;;;;5000616;28;20077;-79
2024/02/25 04:11:14;;;;;;;2.75;1.30;;;6.30;99.90;;;;;;5006148;28;20622;-79
2024/02/25 04:13:39;;;;;;;1.17;1.08;;;6.30;99.90;;;;;;4992169;28;20050;-79
2024/02/25 04:16:05;;;;;;;2.80;1.17;;;6.30;99.90;;;;;;5006633;28;20375;-80
2024/02/25 04:18:31;;;;;;;3.92;1.23;;;6.30;99.90;;;;;;4975586;28;20023;-80
2024/02/25 04:20:56;;;;;;;1.27;1.10;;;6.30;99.90;;;;;;4983160;28;20502;-80
2024/02/25 04:23:23;;;;;;;2.00;1.05;;;6.30;99.90;;;;;;4997169;28;20030;-81
2024/02/25 04:25:49;;;;;;;3.05;1.33;;;6.30;99.90;;;;;;4992637;28;20026;-80
2024/02/25 04:28:15;;;;;;;3.33;1.10;;;6.30;99.90;;;;;;4988273;28;20032;-80
2024/02/25 04:30:43;;;;;;;1.27;0.90;;;6.30;99.90;;;;;;5005836;28;20105;-80
2024/02/25 04:33:09;;;;;;;0.93;0.88;;;6.30;99.90;;;;;;5006467;28;20018;-81
2024/02/25 04:35:35;;;;;;;2.35;1.08;;;6.30;99.90;;;;;;4975190;28;20033;-80
2024/02/25 04:38:02;;;;;;;1.00;0.90;;;6.30;99.90;;;;;;5000294;28;20022;-81
2024/02/25 04:40:28;;;;;;;2.15;0.93;;;6.30;99.90;;;;;;4997375;28;20554;-80
2024/02/25 04:42:54;;;;;;;1.42;0.98;;;6.20;99.90;;;;;;4992133;28;20033;-80
2024/02/25 04:45:19;;;;;;;2.42;0.80;;;6.30;99.90;;;;;;5005315;28;20037;-79
2024/02/25 04:47:45;;;;;;;1.45;1.10;;;6.30;99.90;;;;;;5004382;28;20391;-80
2024/02/25 04:50:11;;;;;;;1.55;0.90;;;6.30;99.90;;;;;;4975654;28;20029;-79
2024/02/25 04:52:36;;;;;;;2.97;1.20;;;6.30;99.90;;;;;;5009506;28;20032;-79
2024/02/25 04:55:02;;;;;;;1.88;1.10;;;6.30;99.90;;;;;;5004288;28;20022;-80
2024/02/25 04:57:28;;;;;;;2.75;1.27;;;6.30;99.90;;;;;;5001026;28;20018;-79
2024/02/25 04:59:53;;;;;;;2.47;1.15;;;6.30;99.90;;;;;;4995731;28;20022;-79
2024/02/25 05:02:19;;;;;;;1.95;1.20;;;6.30;99.90;;;;;;5003783;28;20025;-80
2024/02/25 05:04:45;;;;;;;3.58;1.30;;;6.30;99.90;;;;;;5005004;28;20045;-80
2024/02/25 05:07:11;;;;;;;0.80;0.80;;;6.30;99.90;;;;;;5002948;28;20034;-81
2024/02/25 05:09:37;;;;;;;1.30;1.20;;;6.30;99.90;;;;;;5008426;28;20568;-79
2024/02/25 05:12:03;;;;;;;3.13;1.40;;;6.30;99.90;;;;;;5009701;28;20029;-80
2024/02/25 05:14:28;;;;;;;2.17;1.20;;;6.30;99.90;;;;;;4980359;28;20026;-79
2024/02/25 05:16:54;;;;;;;1.98;1.23;;;6.20;99.90;;;;;;4993528;28;20395;-80
2024/02/25 05:19:20;;;;;;;3.35;1.48;;;6.20;99.90;;;;;;5003677;28;20022;-79
2024/02/25 05:21:45;;;;;;;1.67;1.10;;;6.20;99.90;;;;;;5001421;28;20026;-79
2024/02/25 05:24:11;;;;;;;2.10;1.40;;;6.10;99.90;;;;;;4995288;28;20048;-79
2024/02/25 05:26:37;;;;;;;2.13;1.17;;;6.10;99.90;;;;;;4999983;28;20028;-80
2024/02/25 05:29:04;;;;;;;1.83;1.48;;;6.10;99.90;;;;;;4990273;28;20080;-80
2024/02/25 05:31:30;;;;;;;2.63;1.60;;;6.10;99.90;;;;;;5008108;28;20038;-79
2024/02/25 05:33:55;;;;;;;1.40;1.30;;;6.10;99.90;;;;;;5008907;28;20508;-80
2024/02/25 05:36:22;;;;;;;2.22;1.42;;;6.10;99.90;;;;;;5003868;28;20085;-79
2024/02/25 05:38:51;;;;;;;2.03;1.27;;;6.10;99.90;;;;;;5001053;28;20050;-79
2024/02/25 05:41:17;;;;;;;2.78;1.30;;;6.10;99.90;;;;;;5008839;28;20040;-79
2024/02/25 05:43:44;;;;;;;2.15;1.45;;;6.20;99.90;;;;;;4981225;28;20022;-79
2024/02/25 05:46:10;;;;;;;2.42;1.58;;;6.10;99.90;;;;;;5005562;28;20030;-79
2024/02/25 05:48:36;;;;;;;2.15;1.60;;;6.20;99.90;;;;;;5008611;28;20033;-78
2024/02/25 05:51:04;;;;;;;3.13;1.50;;;6.10;99.90;;;;;;4995154;28;20093;-79
2024/02/25 05:53:30;;;;;;;2.95;1.70;;;6.10;99.90;;;;;;5002315;28;20049;-79
2024/02/25 05:55:56;;;;;;;2.45;1.63;;;6.10;99.90;;;;;;5005128;28;20049;-79
2024/02/25 05:58:21;;;;;;;2.45;1.70;;;6.10;99.90;;;;;;4994753;28;20018;-79
2024/02/25 06:00:47;;;;;;;2.03;1.60;;;6.10;99.90;;;;;;5008419;28;20026;-79
2024/02/25 06:03:15;;;;;;;2.40;1.60;;;6.10;99.90;;;;;;4994777;28;20128;-79
2024/02/25 06:05:41;;;;;;;3.35;1.70;;;6.10;99.90;;;;;;4990531;28;20034;-79
2024/02/25 06:08:06;;;;;;;2.35;1.50;;;6.10;99.90;;;;;;5008628;28;20045;-79
2024/02/25 06:10:33;;;;;;;2.65;1.50;;;6.10;99.90;;;;;;4983201;28;20363;-80
2024/02/25 06:12:59;;;;;;;1.48;1.30;;;6.10;99.90;;;;;;4983999;28;20370;-79
2024/02/25 06:15:24;;;;;;;1.92;1.50;;;6.10;99.90;;;;;;5007967;28;20022;-79
2024/02/25 06:17:50;;;;;;;2.72;1.65;;;6.20;99.90;;;;;;5008569;28;20022;-79
2024/02/25 06:20:15;;;;;;;3.55;1.55;;;6.20;99.90;;;;;;5008073;28;20546;-79
2024/02/25 06:22:41;;;;;;;3.03;1.70;;;6.20;99.90;;;;;;4979935;28;20153;-79
2024/02/25 06:25:08;;;;;;;2.72;1.80;;;6.20;99.90;;;;;;5001597;28;20058;-79
2024/02/25 06:27:37;;;;;;;4.82;2.00;;;6.20;99.90;;;;;;5005964;28;20033;-79
2024/02/25 06:30:07;;;;;;;3.17;1.90;;;6.20;99.90;;;;;;5005460;28;20026;-79
2024/02/25 06:32:33;;;;;;;4.20;2.35;;;6.20;99.90;;;;;;4976779;28;20045;-79
2024/02/25 06:34:59;;;;;;;3.55;1.90;;;6.20;99.90;;;;;;5007964;28;20131;-79
2024/02/25 06:37:28;;;;;;;2.70;1.92;;;6.20;99.90;;;;;;5007338;28;20508;-79
2024/02/25 06:39:54;;;;;;;2.65;1.95;;;6.20;99.90;;;;;;4994739;28;20398;-79
2024/02/25 06:42:20;;;;;;;2.40;1.88;;;6.20;99.90;;;;;;5007695;28;20018;-79
2024/02/25 06:44:46;;;;;;;2.67;1.80;;;6.20;99.90;;;;;;5002771;28;20030;-80
2024/02/25 06:47:11;;;;;;;3.20;2.00;;;6.20;99.90;;;;;;4998548;28;20030;-79
2024/02/25 06:49:39;;;;;;;2.92;2.28;;;6.20;99.90;;;;;;5007540;28;20026;-79
2024/02/25 06:52:05;;;;;;;2.90;2.10;;;6.20;99.90;;;;;;5001820;28;20034;-79
2024/02/25 06:54:31;;;;;;;3.65;2.30;;;6.20;99.90;;;;;;4978945;28;20499;-79
2024/02/25 06:56:57;;;;;;;4.43;2.40;;;6.20;99.90;;;;;;4989940;28;20014;-79
2024/02/25 06:59:23;;;;;;;7.05;2.22;;;6.10;99.90;;;;;;5007666;28;20386;-79
2024/02/25 07:01:49;;;;;;;4.57;2.83;;;6.10;99.90;;;;;;5007615;28;20069;-79
2024/02/25 07:04:17;;;;;;;4.00;2.60;;;6.10;99.90;;;;;;4979068;28;20077;-79
2024/02/25 07:06:43;;;;;;;3.55;2.30;;;6.10;99.90;;;;;;4984022;28;20040;-79
2024/02/25 07:09:09;;;;;;;4.85;2.50;;;6.20;99.90;;;;;;5003052;28;20507;-79
2024/02/25 07:11:34;;;;;;;5.75;3.03;;;6.10;99.90;;;;;;4989852;28;20421;-79
2024/02/25 07:14:00;;;;;;;3.97;2.80;;;6.20;99.90;;;;;;5006599;28;20030;-79
2024/02/25 07:16:26;;;;;;;7.03;3.60;;;6.20;99.90;;;;;;4997390;28;20018;-79
2024/02/25 07:18:53;;;;;;;4.95;2.78;;;6.20;99.90;;;;;;4985371;28;20109;-79
2024/02/25 07:21:19;;;;;;;3.20;2.47;;;6.20;99.90;;;;;;5007003;28;20471;-79
2024/02/25 07:23:44;;;;;;;5.00;2.83;;;6.30;99.90;;;;;;4997276;28;20057;-79
2024/02/25 07:26:12;;;;;;;5.60;2.90;;;6.30;99.90;;;;;;5010505;28;20018;-79
2024/02/25 07:28:41;;;;;;;6.55;2.97;;;6.30;99.90;;;;;;4989195;28;20030;-78
2024/02/25 07:31:18;;;;;;;4.75;3.47;;;6.40;99.90;;;;;;4993025;28;20473;-78
2024/02/25 07:33:45;;;;;;;5.47;3.38;;;6.40;99.90;;;;;;4988321;28;20112;-80
2024/02/25 07:36:12;;;;;;;5.72;3.13;;;6.40;99.90;;;;;;5004352;28;20026;-78
2024/02/25 07:38:39;;;;;;;5.00;3.13;;;6.40;99.90;;;;;;4989025;28;20026;-77
2024/02/25 07:41:05;;;;;;;7.22;3.30;;;6.40;99.90;;;;;;5006635;28;20049;-78
2024/02/25 07:43:33;;;;;;;5.72;3.40;;;6.40;99.90;;;;;;4998223;28;20046;-78
2024/02/25 07:45:59;;;;;;;3.45;2.53;;;6.50;99.90;;;;;;4984099;28;20403;-80
2024/02/25 07:48:24;;;;;;;5.28;3.20;;;6.50;99.90;;;;;;4999694;28;20023;-81
2024/02/25 07:50:50;;;;;;;4.05;3.17;;;6.40;99.90;;;;;;4999391;28;20630;-80
2024/02/25 07:53:16;;;;;;;5.65;2.72;;;6.50;99.90;;;;;;5006606;28;20484;-80
2024/02/25 07:55:41;;;;;;;4.30;3.00;;;6.50;99.90;;;;;;5000069;28;20034;-80
2024/02/25 07:58:07;;;;;;;4.63;2.80;;;6.50;99.90;;;;;;5006918;28;20117;-80
2024/02/25 08:00:33;;;;;;;5.35;3.15;;;6.50;99.90;;;;;;5006035;28;20471;-79
2024/02/25 08:03:00;;;;;;;6.28;3.60;;;6.50;99.90;;;;;;4993167;28;20041;-79
2024/02/25 08:05:25;;;;;;;4.93;3.03;;;6.50;99.90;;;;;;4999227;28;20037;-80
2024/02/25 08:07:52;;;;;;;4.82;2.92;;;6.50;99.90;;;;;;4999655;28;20017;-78
2024/02/25 08:10:21;;;;;;;5.88;2.83;;;6.60;99.90;;;;;;5005660;28;20041;-78
2024/02/25 08:12:47;;;;;;;6.15;3.08;;;6.60;99.90;;;;;;4988734;28;20072;-79
2024/02/25 08:15:14;;;;;;;5.13;3.45;;;6.60;99.90;;;;;;5002203;28;20022;-80
2024/02/25 08:17:40;;;;;;;5.03;2.72;;;6.60;99.90;;;;;;5000379;28;20093;-79
2024/02/25 08:20:06;;;;;;;5.88;3.42;;;6.60;99.90;;;;;;4997892;28;20104;-80
2024/02/25 08:22:34;;;;;;;4.40;3.13;;;6.60;99.90;;;;;;4992007;28;20010;-80
2024/02/25 08:24:59;;;;;;;6.00;3.67;;;6.60;99.90;;;;;;5006075;28;20101;-80
2024/02/25 08:27:28;;;;;;;3.88;3.17;;;6.60;99.90;;;;;;4978827;28;20121;-80
2024/02/25 08:29:55;;;;;;;5.35;3.42;;;6.60;99.90;;;;;;5008279;28;20441;-80
2024/02/25 08:32:21;;;;;;;3.85;2.42;;;6.60;99.90;;;;;;4988317;28;20050;-78
2024/02/25 08:34:53;;;;;;;4.20;2.58;;;6.50;99.90;;;;;;4998785;28;20109;-80
2024/02/25 08:37:23;;;;;;;4.25;1.95;;;6.50;99.90;;;;;;5003150;28;20170;-78
2024/02/25 08:39:51;;;;;;;3.05;2.35;;;6.40;99.90;;;;;;4986148;28;20025;-81
2024/02/25 08:42:18;;;;;;;2.63;1.70;;;6.40;99.90;;;;;;5005716;28;20564;-78
2024/02/25 08:44:45;;;;;;;2.22;1.60;;;6.40;99.90;;;;;;5005451;28;20018;-81
2024/02/25 08:47:11;;;;;;;3.70;2.00;;;6.30;99.90;;;;;;4987684;28;20030;-81
2024/02/25 08:49:39;;;;;;;4.93;1.88;;;6.30;99.90;;;;;;4995285;28;20116;-81
2024/02/25 08:52:04;;;;;;;3.40;1.90;;;6.30;99.90;;;;;;5005262;28;20026;-81
2024/02/25 08:54:31;;;;;;;4.90;2.33;;;6.30;99.90;;;;;;4994289;28;20036;-81
2024/02/25 08:56:57;;;;;;;4.30;2.67;;;6.30;99.90;;;;;;4989656;28;20467;-81
2024/02/25 08:59:23;;;;;;;2.95;2.00;;;6.30;99.90;;;;;;5005053;28;20113;-78
2024/02/25 09:01:49;;;;;;;3.70;2.70;;;6.30;99.90;;;;;;4985920;28;20463;-79
2024/02/25 09:04:14;;;;;;;5.22;2.88;;;6.30;99.90;;;;;;4997145;28;20058;-79
2024/02/25 09:06:40;;;;;;;6.28;3.60;;;6.40;99.90;;;;;;4975875;28;20030;-80
2024/02/25 09:09:06;;;;;;;4.50;3.03;;;6.40;99.90;;;;;;5005593;28;20052;-80
2024/02/25 09:11:32;;;;;;;5.60;3.25;;;6.50;99.90;;;;;;5004812;28;20033;-80
2024/02/25 09:13:58;;;;;;;9.40;3.50;;;6.50;99.90;;;;;;5002572;28;20044;-81
2024/02/25 09:16:24;;;;;;;5.68;3.72;;;6.50;99.90;;;;;;4996025;28;20305;-80
2024/02/25 09:18:49;;;;;;;4.80;3.38;;;6.60;99.90;;;;;;4983180;28;20105;-80
2024/02/25 09:21:15;;;;;;;6.65;3.20;;;6.60;99.90;;;;;;5005757;28;20037;-81
2024/02/25 09:23:41;;;;;;;5.30;3.13;;;6.60;99.90;;;;;;5009023;28;20513;-80
2024/02/25 09:26:07;;;;;;;5.78;3.60;;;6.70;99.90;;;;;;5004529;28;20104;-80
2024/02/25 09:28:34;;;;;;;7.78;3.60;;;6.70;99.90;;;;;;4999441;28;20581;-80
2024/02/25 09:30:59;;;;;;;4.47;3.30;;;6.80;99.90;;;;;;5002389;28;20033;-78
2024/02/25 09:33:29;;;;;;;3.90;3.10;;;6.80;99.90;;;;;;4998944;28;20030;-80
2024/02/25 09:36:01;;;;;;;5.43;2.90;;;6.80;99.90;;;;;;5004932;28;20410;-80
2024/02/25 09:38:27;;;;;;;5.57;3.28;;;6.90;99.90;;;;;;5008217;28;20052;-80
2024/02/25 09:41:00;;;;;;;5.40;3.20;;;6.90;99.90;;;;;;5004835;28;20577;-77
2024/02/25 09:43:27;;;;;;;4.72;2.95;;;6.90;99.90;;;;;;5008187;28;20033;-78
2024/02/25 09:45:55;;;;;;;4.78;2.90;;;6.90;99.90;;;;;;5008162;28;20636;-78
2024/02/25 09:48:21;;;;;;;5.00;2.50;;;6.90;99.90;;;;;;4991176;28;20127;-77
2024/02/25 09:50:49;;;;;;;3.65;2.22;;;7.00;99.90;;;;;;5008303;28;20065;-78
2024/02/25 09:53:16;;;;;;;3.58;2.45;;;6.90;99.90;;;;;;5008730;28;20032;-78
2024/02/25 09:55:44;;;;;;;3.42;1.95;;;6.90;99.90;;;;;;5010779;28;20010;-79
2024/02/25 09:58:10;;;;;;;3.33;2.00;;;6.90;99.90;;;;;;4992539;28;20464;-78
2024/02/25 10:00:36;;;;;;;3.70;1.90;;;6.90;99.90;;;;;;5008155;28;20025;-79
2024/02/25 10:03:02;;;;;;;4.65;1.80;;;7.00;99.90;;;;;;4983092;28;20498;-78
2024/02/25 10:05:27;;;;;;;2.45;1.70;;;7.00;99.90;;;;;;5008137;28;20471;-78
2024/02/25 10:08:20;;;;;;;2.30;1.80;;;7.00;99.90;;;;;;4990957;28;20025;-78
2024/02/25 10:10:46;;;;;;;3.97;1.92;;;7.00;99.90;;;;;;4975987;28;20532;-78
2024/02/25 10:13:11;;;;;;;4.85;2.00;;;7.00;99.90;;;;;;5007739;28;20026;-78
2024/02/25 10:15:39;;;;;;;2.72;2.08;;;7.00;99.90;;;;;;4994871;28;20014;-78
2024/02/25 10:18:05;;;;;;;3.85;2.45;;;7.10;99.90;;;;;;5009246;28;20394;-79
2024/02/25 10:20:30;;;;;;;4.90;3.10;;;7.20;99.90;;;;;;4994838;28;20387;-78
2024/02/25 10:23:10;;;;;;;4.43;2.72;;;7.20;99.90;;;;;;5008521;28;20029;-78
2024/02/25 10:25:41;;;;;;;5.15;3.20;;;7.30;99.90;;;;;;4986654;28;20091;-78
2024/02/25 10:28:16;;;;;;;5.30;3.38;;;7.30;99.90;;;;;;5004656;28;20026;-78
2024/02/25 10:30:59;;;;;;;5.72;3.50;;;7.40;99.90;;;;;;5003392;28;20033;-78
2024/02/25 10:33:24;;;;;;;5.00;3.30;;;7.40;99.90;;;;;;4998825;28;20026;-78
2024/02/25 10:35:51;;;;;;;6.65;3.75;;;7.40;99.90;;;;;;5001659;28;20029;-80
2024/02/25 10:38:19;;;;;;;6.63;3.97;;;7.40;99.90;;;;;;4995872;28;20533;-77
2024/02/25 10:40:45;;;;;;;6.45;3.97;;;7.50;99.90;;;;;;4996461;28;20564;-76
2024/02/25 10:43:13;;;;;;;4.93;3.55;;;7.50;99.90;;;;;;4982449;28;20598;-78
2024/02/25 10:45:44;;;;;;;6.38;3.85;;;7.60;99.90;;;;;;5002474;28;20038;-78
2024/02/25 10:48:11;;;;;;;6.80;4.07;;;7.60;99.90;;;;;;5002844;28;20029;-78
2024/02/25 10:50:40;;;;;;;7.97;4.15;;;7.60;99.90;;;;;;4995497;28;20034;-78
2024/02/25 10:53:10;;;;;;;7.10;4.35;;;7.60;99.90;;;;;;4988525;28;20326;-78
2024/02/25 10:55:40;;;;;;;6.88;3.70;;;7.70;99.90;;;;;;5000262;28;20034;-78
2024/02/25 10:58:09;;;;;;;7.85;4.30;;;7.70;99.90;;;;;;5007707;28;20038;-78
2024/02/25 11:00:35;;;;;;;6.88;4.72;;;7.70;99.90;;;;;;5007396;28;20105;-78
2024/02/25 11:03:03;;;;;;;6.78;3.88;;;7.80;99.90;;;;;;5007251;28;20133;-78
2024/02/25 11:05:28;;;;;;;5.90;3.78;;;7.80;99.90;;;;;;5007547;28;20032;-79
2024/02/25 11:07:58;;;;;;;7.03;4.43;;;7.80;99.90;;;;;;4982010;28;20022;-80
2024/02/25 11:10:32;;;;;;;7.70;4.25;;;7.80;99.90;;;;;;4983905;28;20046;-79
2024/02/25 11:13:03;;;;;;;6.93;4.07;;;7.80;99.90;;;;;;4999001;28;20072;-79
2024/02/25 11:15:32;;;;;;;8.90;4.00;;;7.80;99.90;;;;;;5006351;28;20517;-79
2024/02/25 11:18:00;;;;;;;5.60;3.47;;;7.80;99.90;;;;;;5007087;28;20025;-80
2024/02/25 11:20:28;;;;;;;9.68;4.28;;;7.80;99.90;;;;;;5006612;28;20029;-80
2024/02/25 11:22:55;;;;;;;7.13;4.10;;;7.70;99.90;;;;;;5008749;28;20556;-80
2024/02/25 11:25:26;;;;;;;7.13;4.28;;;7.70;99.90;;;;;;4999458;28;20443;-80
2024/02/25 11:27:56;;;;;;;6.88;3.45;;;7.70;99.90;;;;;;5006663;28;20113;-79
2024/02/25 11:30:22;;;;;;;6.00;4.05;;;7.80;99.90;;;;;;4988875;28;20026;-80
2024/02/25 11:32:48;;;;;;;6.22;4.40;;;7.70;99.90;;;;;;5006520;28;20033;-79
2024/02/25 11:35:15;;;;;;;8.55;4.00;;;7.80;99.90;;;;;;4981793;28;20492;-79
2024/02/25 11:37:44;;;;;;;6.13;4.22;;;7.80;99.90;;;;;;4985703;28;20116;-79
2024/02/25 11:40:11;;;;;;;7.45;4.30;;;7.80;99.90;;;;;;4971501;28;20136;-80
2024/02/25 11:42:38;;;;;;;6.95;4.20;;;7.80;99.90;;;;;;5000886;28;20022;-81
2024/02/25 11:45:04;;;;;;;7.45;4.60;;;7.80;99.90;;;;;;4994328;28;20182;-80
2024/02/25 11:47:30;;;;;;;12.35;4.82;;;7.80;99.90;;;;;;4987027;28;20034;-80
2024/02/25 11:49:58;;;;;;;5.85;4.07;;;7.80;99.90;;;;;;4989620;28;20029;-79
2024/02/25 11:52:24;;;;;;;7.78;4.30;;;7.90;99.90;;;;;;5010956;28;20029;-79
2024/02/25 11:54:49;;;;;;;7.03;4.38;;;7.90;99.90;;;;;;5007891;28;20026;-79
2024/02/25 11:57:17;;;;;;;8.18;4.13;;;7.90;99.90;;;;;;5002769;28;20419;-79
2024/02/25 11:59:44;;;;;;;6.28;4.15;;;8.00;99.90;;;;;;4983597;28;20851;-79
2024/02/25 12:02:09;;;;;;;7.60;4.50;;;8.00;99.90;;;;;;5006090;28;20037;-79
2024/02/25 12:04:36;;;;;;;8.65;4.00;;;8.10;99.90;;;;;;5004498;28;20817;-79
2024/02/25 12:07:04;;;;;;;5.70;3.75;;;8.10;99.90;;;;;;5000164;28;20125;-79
2024/02/25 12:09:30;;;;;;;5.45;3.53;;;8.20;99.90;;;;;;4992427;28;20598;-79
2024/02/25 12:11:56;;;;;;;6.45;3.97;;;8.20;99.90;;;;;;4963419;28;20027;-78
2024/02/25 12:14:22;;;;;;;7.60;3.90;;;8.30;99.90;;;;;;4978216;28;20039;-77
2024/02/25 12:16:50;;;;;;;5.45;3.55;;;8.40;99.90;;;;;;4982369;28;20026;-77
2024/02/25 12:19:17;;;;;;;6.30;3.53;;;8.40;99.90;;;;;;4961977;28;20484;-78
2024/02/25 12:21:49;;;;;;;4.30;2.90;;;8.50;99.90;;;;;;4981063;28;20399;-78
2024/02/25 12:24:16;;;;;;;5.50;2.40;;;8.60;99.90;;;;;;4977039;28;20030;-77
2024/02/25 12:26:48;;;;;;;4.63;2.20;;;8.70;99.90;;;;;;4963728;28;20113;-78
2024/02/25 12:29:18;;;;;;;2.80;2.03;;;8.70;99.90;;;;;;4983190;28;20026;-78
2024/02/25 12:31:44;;;;;;;4.93;1.60;;;8.70;99.90;;;;;;4983111;28;20026;-77
2024/02/25 12:34:10;;;;;;;1.77;1.13;;;8.80;99.90;;;;;;4967933;28;20117;-78
2024/02/25 12:36:35;;;;;;;3.10;1.55;;;8.80;99.90;;;;;;4981454;28;20597;-78
2024/02/25 12:39:01;;;;;;;2.22;1.23;;;8.90;99.90;;;;;;4982405;28;20537;-79
2024/02/25 12:41:32;;;;;;;2.10;1.20;;;8.90;99.90;;;;;;4983895;28;20023;-79
2024/02/25 12:43:57;;;;;;;1.48;0.93;;;8.90;99.90;;;;;;4986652;28;20030;-78
2024/02/25 12:46:23;;;;;;;2.45;1.15;;;9.00;99.90;;;;;;4984761;28;20048;-78
2024/02/25 12:48:49;;;;;;;2.03;0.98;;;9.10;99.90;;;;;;4986771;28;20032;-78
2024/02/25 12:51:17;;;;;;;2.03;1.30;;;9.20;99.90;;;;;;4984352;28;20034;-78
2024/02/25 12:53:47;;;;;;;4.55;1.60;;;9.30;99.90;;;;;;4982638;28;20034;-77